KCBK/CBK METAR and TAF weather

Enter ICAO airport designator
Station Type Date Time Source
KCBK METAR 2022/07/03 14:15 UTC NOAA

KCBK 031415Z AUTO 13008KT 10SM CLR 24/19 A3006 RMK AO2 T02430192


Station Type Date Time Source
KCBK Decoded METAR 2022/07/03 14:15 UTC NOAA

Station name not available
Jul 03, 2022 - 10:15 AM EDT / 2022.07.03 1415 UTC
Wind: from the SE (130 degrees) at 9 MPH (8 KT):0
Visibility: 10 mile(s):0
Sky conditions: clear
Temperature: 75.7 F (24.3 C)
Dew Point: 66.6 F (19.2 C)
Relative Humidity: 73%
Pressure (altimeter): 30.06 in. Hg (1017 hPa)
ob: KCBK 031415Z AUTO 13008KT 10SM CLR 24/19 A3006 RMK AO2 T02430192
cycle: 14

Station Type Date Time Source
KCBK TAF UTC NOAA

Error!

Example: see airport list